RUK19AF EGTE-EGAA
Flight info
| Callsign | RUK19AF |
|---|---|
| Flight time | 1h 8m |
| Altitude | 27000 |
| Route | EXMOR DCT CARWI N864 ETNAH DCT AZCAL DCT DIZIM DCT AVTIC DCT MONTY UN864 BILVO UP6 TUPEM DCT REMSI DCT UVPOK M147 ROBOP M146 IPSET P6 BELZU |
| Aircraft | B738/M-SDE2E3FGHIRWXY/LB1 |
Departure
| Time | 2026-04-20 18:12 |
|---|---|
| Airport | Exeter International Airport (EGTE) |
Arrival
| Time | 2026-04-20 19:20 |
|---|---|
| Airport | Belfast International Airport (EGAA) |
| Time | Latitude | Longitude | Altitude | Speed | Heading |
|---|---|---|---|---|---|
| 2026-04-20 17:55 | 50.73081 | -3.41880 | 111 ft | 0 kts | 131° |
| 2026-04-20 18:05 | 50.73091 | -3.41897 | 111 ft | 4 kts | 136° |
| 2026-04-20 18:05 | 50.73112 | -3.41923 | 109 ft | 4 kts | 157° |
| 2026-04-20 18:06 | 50.73134 | -3.41928 | 106 ft | 4 kts | 215° |
| 2026-04-20 18:06 | 50.73141 | -3.41920 | 104 ft | 0 kts | 242° |
| 2026-04-20 18:08 | 50.73106 | -3.42033 | 107 ft | 23 kts | 245° |
| 2026-04-20 18:09 | 50.73061 | -3.42216 | 109 ft | 14 kts | 276° |
| 2026-04-20 18:09 | 50.73071 | -3.42378 | 108 ft | 15 kts | 270° |
| 2026-04-20 18:09 | 50.73073 | -3.42542 | 109 ft | 15 kts | 272° |
| 2026-04-20 18:09 | 50.73098 | -3.42694 | 110 ft | 14 kts | 295° |
| 2026-04-20 18:10 | 50.73175 | -3.42773 | 109 ft | 13 kts | 342° |
| 2026-04-20 18:10 | 50.73216 | -3.42745 | 110 ft | 6 kts | 68° |
| 2026-04-20 18:10 | 50.73220 | -3.42721 | 108 ft | 0 kts | 75° |
| 2026-04-20 18:11 | 50.73225 | -3.42686 | 110 ft | 15 kts | 76° |
| 2026-04-20 18:11 | 50.73334 | -3.41989 | 107 ft | 117 kts | 74° |
| 2026-04-20 18:11 | 50.73597 | -3.40334 | 369 ft | 181 kts | 76° |
| 2026-04-20 18:12 | 50.73954 | -3.38327 | 1512 ft | 193 kts | 72° |
| 2026-04-20 18:12 | 50.74389 | -3.36217 | 2497 ft | 215 kts | 74° |
| 2026-04-20 18:12 | 50.74721 | -3.33772 | 2949 ft | 232 kts | 79° |
| 2026-04-20 18:12 | 50.75010 | -3.31279 | 3395 ft | 231 kts | 79° |
| 2026-04-20 18:13 | 50.75274 | -3.28784 | 3818 ft | 231 kts | 79° |
| 2026-04-20 18:13 | 50.75536 | -3.26265 | 4244 ft | 234 kts | 79° |
| 2026-04-20 18:13 | 50.75793 | -3.23721 | 4697 ft | 235 kts | 79° |
| 2026-04-20 18:13 | 50.76430 | -3.21370 | 5122 ft | 236 kts | 48° |
| 2026-04-20 18:14 | 50.77870 | -3.20177 | 5632 ft | 243 kts | 10° |
| 2026-04-20 18:14 | 50.79578 | -3.20222 | 6174 ft | 248 kts | 0° |
| 2026-04-20 18:14 | 50.81320 | -3.20335 | 6707 ft | 252 kts | 0° |
| 2026-04-20 18:14 | 50.83072 | -3.20438 | 7192 ft | 258 kts | 360° |
| 2026-04-20 18:15 | 50.84896 | -3.20537 | 7659 ft | 264 kts | 0° |
| 2026-04-20 18:15 | 50.86735 | -3.20630 | 8122 ft | 269 kts | 0° |
| 2026-04-20 18:15 | 50.88639 | -3.20719 | 8990 ft | 274 kts | 359° |
| 2026-04-20 18:15 | 50.90556 | -3.20807 | 10011 ft | 277 kts | 357° |
| 2026-04-20 18:16 | 50.91831 | -3.20865 | 10638 ft | 279 kts | 356° |
| 2026-04-20 18:16 | 50.93846 | -3.20956 | 11052 ft | 302 kts | 356° |
| 2026-04-20 18:16 | 50.96045 | -3.21055 | 11272 ft | 329 kts | 357° |
| 2026-04-20 18:16 | 50.99245 | -3.21194 | 11611 ft | 360 kts | 357° |
| 2026-04-20 18:17 | 51.00949 | -3.21265 | 12013 ft | 366 kts | 357° |
| 2026-04-20 18:17 | 51.03515 | -3.21367 | 12814 ft | 370 kts | 357° |
| 2026-04-20 18:17 | 51.06093 | -3.21466 | 13681 ft | 372 kts | 356° |
| 2026-04-20 18:17 | 51.08695 | -3.21570 | 14463 ft | 376 kts | 356° |
| 2026-04-20 18:18 | 51.11322 | -3.21675 | 15176 ft | 379 kts | 356° |
| 2026-04-20 18:18 | 51.13973 | -3.21782 | 15911 ft | 382 kts | 355° |
| 2026-04-20 18:18 | 51.16646 | -3.21891 | 16631 ft | 385 kts | 355° |
| 2026-04-20 18:18 | 51.19337 | -3.21999 | 17346 ft | 388 kts | 355° |
| 2026-04-20 18:19 | 51.22054 | -3.22111 | 18030 ft | 392 kts | 354° |
| 2026-04-20 18:19 | 51.24794 | -3.22223 | 18674 ft | 396 kts | 354° |
| 2026-04-20 18:19 | 51.27557 | -3.22335 | 19250 ft | 399 kts | 354° |
| 2026-04-20 18:19 | 51.30309 | -3.22446 | 19837 ft | 402 kts | 354° |
| 2026-04-20 18:20 | 51.33118 | -3.22559 | 20479 ft | 403 kts | 354° |
| 2026-04-20 18:20 | 51.35937 | -3.22673 | 21041 ft | 406 kts | 353° |
| 2026-04-20 18:20 | 51.38777 | -3.22788 | 21560 ft | 410 kts | 353° |
| 2026-04-20 18:20 | 51.41646 | -3.22905 | 22076 ft | 414 kts | 353° |
| 2026-04-20 18:21 | 51.44536 | -3.23022 | 22579 ft | 417 kts | 353° |
| 2026-04-20 18:21 | 51.47453 | -3.23140 | 23075 ft | 420 kts | 353° |
| 2026-04-20 18:21 | 51.50382 | -3.23258 | 23583 ft | 423 kts | 353° |
| 2026-04-20 18:21 | 51.53344 | -3.23377 | 24038 ft | 426 kts | 352° |
| 2026-04-20 18:22 | 51.56303 | -3.23494 | 24537 ft | 426 kts | 352° |
| 2026-04-20 18:22 | 51.59269 | -3.23612 | 24984 ft | 427 kts | 352° |
| 2026-04-20 18:22 | 51.62259 | -3.23732 | 25374 ft | 430 kts | 352° |
| 2026-04-20 18:22 | 51.65264 | -3.23856 | 25738 ft | 433 kts | 352° |
| 2026-04-20 18:23 | 51.68285 | -3.23976 | 26112 ft | 436 kts | 353° |
| 2026-04-20 18:23 | 51.71349 | -3.23746 | 26464 ft | 445 kts | 359° |
| 2026-04-20 18:23 | 51.74398 | -3.23104 | 26874 ft | 447 kts | 1° |
| 2026-04-20 18:23 | 51.77477 | -3.22391 | 27332 ft | 446 kts | 0° |
| 2026-04-20 18:24 | 51.80541 | -3.21694 | 27296 ft | 443 kts | 0° |
| 2026-04-20 18:24 | 51.83588 | -3.21033 | 27308 ft | 442 kts | 360° |
| 2026-04-20 18:24 | 51.86639 | -3.20399 | 27306 ft | 442 kts | 359° |
| 2026-04-20 18:24 | 51.89698 | -3.19774 | 27296 ft | 443 kts | 359° |
| 2026-04-20 18:25 | 51.92756 | -3.19305 | 27273 ft | 439 kts | 356° |
| 2026-04-20 18:25 | 51.95799 | -3.19072 | 27285 ft | 437 kts | 354° |
| 2026-04-20 18:25 | 51.98846 | -3.18895 | 27281 ft | 438 kts | 354° |
| 2026-04-20 18:25 | 52.01904 | -3.18686 | 27284 ft | 439 kts | 355° |
| 2026-04-20 18:26 | 52.04957 | -3.18447 | 27247 ft | 440 kts | 355° |
| 2026-04-20 18:26 | 52.07979 | -3.18213 | 27244 ft | 439 kts | 355° |
| 2026-04-20 18:26 | 52.11029 | -3.17984 | 27253 ft | 439 kts | 355° |
| 2026-04-20 18:26 | 52.14083 | -3.17757 | 27250 ft | 438 kts | 355° |
| 2026-04-20 18:27 | 52.17129 | -3.17530 | 27255 ft | 438 kts | 355° |
| 2026-04-20 18:27 | 52.20167 | -3.17301 | 27252 ft | 437 kts | 355° |
| 2026-04-20 18:27 | 52.23200 | -3.17068 | 27262 ft | 436 kts | 355° |
| 2026-04-20 18:27 | 52.26235 | -3.16836 | 27266 ft | 436 kts | 355° |
| 2026-04-20 18:28 | 52.29265 | -3.16616 | 27261 ft | 435 kts | 354° |
| 2026-04-20 18:28 | 52.32286 | -3.16404 | 27255 ft | 435 kts | 354° |
| 2026-04-20 18:28 | 52.35312 | -3.16169 | 27259 ft | 435 kts | 355° |
| 2026-04-20 18:28 | 52.38335 | -3.15928 | 27254 ft | 434 kts | 355° |
| 2026-04-20 18:29 | 52.41312 | -3.15691 | 27259 ft | 434 kts | 355° |
| 2026-04-20 18:29 | 52.44368 | -3.15450 | 27251 ft | 434 kts | 355° |
| 2026-04-20 18:29 | 52.47381 | -3.15215 | 27247 ft | 434 kts | 355° |
| 2026-04-20 18:29 | 52.50357 | -3.14985 | 27281 ft | 434 kts | 355° |
| 2026-04-20 18:30 | 52.53383 | -3.14751 | 27259 ft | 435 kts | 355° |
| 2026-04-20 18:30 | 52.56401 | -3.14516 | 27256 ft | 435 kts | 355° |
| 2026-04-20 18:30 | 52.59424 | -3.14279 | 27261 ft | 435 kts | 355° |
| 2026-04-20 18:30 | 52.62454 | -3.14041 | 27263 ft | 435 kts | 355° |
| 2026-04-20 18:31 | 52.65479 | -3.13804 | 27262 ft | 435 kts | 355° |
| 2026-04-20 18:31 | 52.68513 | -3.13568 | 27259 ft | 436 kts | 355° |
| 2026-04-20 18:31 | 52.71541 | -3.13381 | 27262 ft | 434 kts | 352° |
| 2026-04-20 18:31 | 52.74518 | -3.13743 | 27273 ft | 427 kts | 346° |
| 2026-04-20 18:32 | 52.77457 | -3.14505 | 27270 ft | 428 kts | 345° |
| 2026-04-20 18:32 | 52.80405 | -3.15285 | 27256 ft | 429 kts | 345° |
| 2026-04-20 18:32 | 52.83324 | -3.16012 | 27265 ft | 430 kts | 346° |
| 2026-04-20 18:32 | 52.86286 | -3.16716 | 27268 ft | 431 kts | 346° |
| 2026-04-20 18:33 | 52.89270 | -3.17344 | 27258 ft | 434 kts | 349° |
| 2026-04-20 18:33 | 52.92325 | -3.17362 | 27279 ft | 441 kts | 357° |
| 2026-04-20 18:33 | 52.95393 | -3.17008 | 27286 ft | 442 kts | 357° |
| 2026-04-20 18:33 | 52.98464 | -3.16700 | 27289 ft | 442 kts | 359° |
| 2026-04-20 18:34 | 53.01548 | -3.16431 | 27296 ft | 443 kts | 359° |
| 2026-04-20 18:34 | 53.04636 | -3.16177 | 27283 ft | 444 kts | 358° |
| 2026-04-20 18:34 | 53.07682 | -3.15929 | 27290 ft | 445 kts | 358° |
| 2026-04-20 18:34 | 53.10775 | -3.15681 | 27292 ft | 445 kts | 358° |
| 2026-04-20 18:35 | 53.13873 | -3.15433 | 27294 ft | 446 kts | 358° |
| 2026-04-20 18:35 | 53.16974 | -3.15190 | 27291 ft | 446 kts | 358° |
| 2026-04-20 18:35 | 53.20081 | -3.14947 | 27294 ft | 446 kts | 358° |
| 2026-04-20 18:35 | 53.23176 | -3.14703 | 27300 ft | 446 kts | 359° |
| 2026-04-20 18:36 | 53.26291 | -3.14455 | 27296 ft | 447 kts | 359° |
| 2026-04-20 18:36 | 53.29397 | -3.14203 | 27291 ft | 447 kts | 359° |
| 2026-04-20 18:36 | 53.32538 | -3.13947 | 27289 ft | 447 kts | 359° |
| 2026-04-20 18:36 | 53.35618 | -3.13699 | 27293 ft | 447 kts | 359° |
| 2026-04-20 18:37 | 53.38730 | -3.13460 | 27288 ft | 447 kts | 358° |
| 2026-04-20 18:37 | 53.41834 | -3.13587 | 27294 ft | 444 kts | 352° |
| 2026-04-20 18:37 | 53.44911 | -3.14094 | 27292 ft | 443 kts | 350° |
| 2026-04-20 18:37 | 53.47977 | -3.14661 | 27288 ft | 443 kts | 350° |
| 2026-04-20 18:38 | 53.51048 | -3.15206 | 27290 ft | 443 kts | 351° |
| 2026-04-20 18:38 | 53.54085 | -3.15702 | 27292 ft | 443 kts | 351° |
| 2026-04-20 18:38 | 53.57159 | -3.16177 | 27293 ft | 443 kts | 351° |
| 2026-04-20 18:38 | 53.60235 | -3.16643 | 27292 ft | 443 kts | 351° |
| 2026-04-20 18:39 | 53.63310 | -3.17107 | 27293 ft | 443 kts | 351° |
| 2026-04-20 18:39 | 53.66384 | -3.17579 | 27294 ft | 443 kts | 351° |
| 2026-04-20 18:39 | 53.69435 | -3.18223 | 27282 ft | 440 kts | 343° |
| 2026-04-20 18:39 | 53.72217 | -3.20225 | 27307 ft | 434 kts | 326° |
| 2026-04-20 18:40 | 53.74587 | -3.23347 | 27294 ft | 433 kts | 313° |
| 2026-04-20 18:40 | 53.76436 | -3.27355 | 27301 ft | 432 kts | 301° |
| 2026-04-20 18:40 | 53.77982 | -3.31710 | 27294 ft | 433 kts | 300° |
| 2026-04-20 18:40 | 53.79499 | -3.36118 | 27289 ft | 434 kts | 300° |
| 2026-04-20 18:41 | 53.81038 | -3.40518 | 27290 ft | 434 kts | 300° |
| 2026-04-20 18:41 | 53.82599 | -3.44899 | 27293 ft | 435 kts | 301° |
| 2026-04-20 18:41 | 53.84170 | -3.49271 | 27296 ft | 435 kts | 301° |
| 2026-04-20 18:41 | 53.85740 | -3.53655 | 27297 ft | 435 kts | 300° |
| 2026-04-20 18:42 | 53.87303 | -3.58047 | 27290 ft | 435 kts | 300° |
| 2026-04-20 18:42 | 53.88865 | -3.62446 | 27291 ft | 436 kts | 300° |
| 2026-04-20 18:42 | 53.90430 | -3.66853 | 27299 ft | 436 kts | 300° |
| 2026-04-20 18:42 | 53.91968 | -3.71193 | 27298 ft | 435 kts | 300° |
| 2026-04-20 18:43 | 53.93519 | -3.75583 | 27296 ft | 434 kts | 300° |
| 2026-04-20 18:43 | 53.94994 | -3.80053 | 27296 ft | 434 kts | 294° |
| 2026-04-20 18:43 | 53.96096 | -3.84844 | 26996 ft | 438 kts | 287° |
| 2026-04-20 18:43 | 53.96755 | -3.89893 | 26317 ft | 435 kts | 278° |
| 2026-04-20 18:44 | 53.97162 | -3.94990 | 25620 ft | 435 kts | 278° |
| 2026-04-20 18:44 | 53.97569 | -4.00062 | 24924 ft | 431 kts | 278° |
| 2026-04-20 18:44 | 53.97994 | -4.05073 | 24253 ft | 427 kts | 279° |
| 2026-04-20 18:44 | 53.98430 | -4.10045 | 23543 ft | 424 kts | 279° |
| 2026-04-20 18:45 | 53.98877 | -4.14999 | 22747 ft | 421 kts | 281° |
| 2026-04-20 18:45 | 53.99642 | -4.19786 | 21973 ft | 418 kts | 290° |
| 2026-04-20 18:45 | 54.00802 | -4.24234 | 21252 ft | 415 kts | 298° |
| 2026-04-20 18:45 | 54.02351 | -4.28357 | 20514 ft | 411 kts | 306° |
| 2026-04-20 18:46 | 54.04033 | -4.32269 | 19814 ft | 408 kts | 306° |
| 2026-04-20 18:46 | 54.05700 | -4.36175 | 19127 ft | 405 kts | 306° |
| 2026-04-20 18:46 | 54.07336 | -4.40077 | 18420 ft | 403 kts | 305° |
| 2026-04-20 18:46 | 54.08949 | -4.43964 | 17643 ft | 400 kts | 305° |
| 2026-04-20 18:47 | 54.10533 | -4.47823 | 16897 ft | 396 kts | 304° |
| 2026-04-20 18:47 | 54.12083 | -4.51619 | 16169 ft | 393 kts | 304° |
| 2026-04-20 18:47 | 54.13624 | -4.55393 | 15442 ft | 383 kts | 304° |
| 2026-04-20 18:47 | 54.15136 | -4.59099 | 14743 ft | 379 kts | 304° |
| 2026-04-20 18:48 | 54.16647 | -4.62806 | 14053 ft | 381 kts | 304° |
| 2026-04-20 18:48 | 54.18163 | -4.66528 | 13275 ft | 383 kts | 304° |
| 2026-04-20 18:48 | 54.19685 | -4.70262 | 12544 ft | 382 kts | 304° |
| 2026-04-20 18:48 | 54.21181 | -4.73935 | 11804 ft | 371 kts | 304° |
| 2026-04-20 18:49 | 54.22628 | -4.77485 | 11079 ft | 358 kts | 304° |
| 2026-04-20 18:49 | 54.24025 | -4.80915 | 10619 ft | 341 kts | 304° |
| 2026-04-20 18:49 | 54.25334 | -4.84133 | 10457 ft | 318 kts | 304° |
| 2026-04-20 18:49 | 54.26559 | -4.87145 | 10289 ft | 299 kts | 304° |
| 2026-04-20 18:50 | 54.27715 | -4.89994 | 10051 ft | 285 kts | 304° |
| 2026-04-20 18:50 | 54.28825 | -4.92734 | 9771 ft | 277 kts | 304° |
| 2026-04-20 18:50 | 54.29914 | -4.95424 | 9494 ft | 274 kts | 304° |
| 2026-04-20 18:50 | 54.30998 | -4.98106 | 9218 ft | 272 kts | 304° |
| 2026-04-20 18:51 | 54.32059 | -5.00732 | 8967 ft | 271 kts | 304° |
| 2026-04-20 18:51 | 54.33137 | -5.03406 | 8711 ft | 274 kts | 304° |
| 2026-04-20 18:51 | 54.34251 | -5.06071 | 8451 ft | 274 kts | 306° |
| 2026-04-20 18:51 | 54.35418 | -5.08667 | 8200 ft | 275 kts | 307° |
| 2026-04-20 18:52 | 54.36596 | -5.11253 | 7937 ft | 275 kts | 308° |
| 2026-04-20 18:52 | 54.37773 | -5.13842 | 7614 ft | 276 kts | 307° |
| 2026-04-20 18:52 | 54.38952 | -5.16448 | 7231 ft | 274 kts | 307° |
| 2026-04-20 18:52 | 54.40106 | -5.19005 | 6847 ft | 268 kts | 307° |
| 2026-04-20 18:53 | 54.41218 | -5.21480 | 6457 ft | 263 kts | 307° |
| 2026-04-20 18:53 | 54.42334 | -5.23968 | 6061 ft | 262 kts | 308° |
| 2026-04-20 18:53 | 54.43437 | -5.26432 | 5672 ft | 261 kts | 308° |
| 2026-04-20 18:53 | 54.44543 | -5.28906 | 5289 ft | 260 kts | 308° |
| 2026-04-20 18:54 | 54.45646 | -5.31320 | 4881 ft | 254 kts | 313° |
| 2026-04-20 18:54 | 54.46898 | -5.33423 | 4491 ft | 250 kts | 318° |
| 2026-04-20 18:54 | 54.48170 | -5.35433 | 4105 ft | 246 kts | 319° |
| 2026-04-20 18:54 | 54.49422 | -5.37408 | 3713 ft | 243 kts | 319° |
| 2026-04-20 18:55 | 54.50670 | -5.39385 | 3340 ft | 243 kts | 319° |
| 2026-04-20 18:55 | 54.51907 | -5.41365 | 2944 ft | 243 kts | 319° |
| 2026-04-20 18:55 | 54.53132 | -5.43340 | 2574 ft | 240 kts | 319° |
| 2026-04-20 18:55 | 54.54349 | -5.45305 | 2526 ft | 240 kts | 319° |
| 2026-04-20 18:56 | 54.55569 | -5.47278 | 2516 ft | 241 kts | 319° |
| 2026-04-20 18:56 | 54.56789 | -5.49256 | 2510 ft | 241 kts | 319° |
| 2026-04-20 18:56 | 54.58011 | -5.51236 | 2507 ft | 241 kts | 319° |
| 2026-04-20 18:56 | 54.59230 | -5.53213 | 2503 ft | 241 kts | 319° |
| 2026-04-20 18:57 | 54.60439 | -5.55171 | 2502 ft | 241 kts | 319° |
| 2026-04-20 18:57 | 54.61661 | -5.57154 | 2515 ft | 241 kts | 318° |
| 2026-04-20 18:57 | 54.62884 | -5.59134 | 2507 ft | 242 kts | 319° |
| 2026-04-20 18:57 | 54.64109 | -5.61134 | 2507 ft | 242 kts | 319° |
| 2026-04-20 18:58 | 54.65331 | -5.63138 | 2522 ft | 242 kts | 319° |
| 2026-04-20 18:58 | 54.66551 | -5.65146 | 2525 ft | 242 kts | 319° |
| 2026-04-20 18:58 | 54.67775 | -5.67164 | 2520 ft | 243 kts | 319° |
| 2026-04-20 18:58 | 54.68997 | -5.69181 | 2516 ft | 243 kts | 319° |
| 2026-04-20 18:59 | 54.70222 | -5.71204 | 2518 ft | 243 kts | 318° |
| 2026-04-20 18:59 | 54.71443 | -5.73221 | 2519 ft | 243 kts | 318° |
| 2026-04-20 18:59 | 54.72649 | -5.75216 | 2519 ft | 243 kts | 318° |
| 2026-04-20 18:59 | 54.73865 | -5.77227 | 2514 ft | 238 kts | 319° |
| 2026-04-20 19:00 | 54.75032 | -5.79167 | 2504 ft | 228 kts | 319° |
| 2026-04-20 19:00 | 54.76150 | -5.81037 | 2505 ft | 221 kts | 318° |
| 2026-04-20 19:00 | 54.77239 | -5.82907 | 2509 ft | 221 kts | 311° |
| 2026-04-20 19:00 | 54.77796 | -5.85359 | 2501 ft | 224 kts | 269° |
| 2026-04-20 19:01 | 54.77286 | -5.87828 | 2525 ft | 220 kts | 225° |
| 2026-04-20 19:01 | 54.75989 | -5.89060 | 2531 ft | 215 kts | 182° |
| 2026-04-20 19:01 | 54.74564 | -5.88583 | 2547 ft | 211 kts | 156° |
| 2026-04-20 19:01 | 54.73119 | -5.87928 | 2522 ft | 217 kts | 169° |
| 2026-04-20 19:02 | 54.71632 | -5.87450 | 2519 ft | 217 kts | 160° |
| 2026-04-20 19:02 | 54.70264 | -5.86447 | 2514 ft | 210 kts | 146° |
| 2026-04-20 19:02 | 54.69114 | -5.84965 | 2512 ft | 204 kts | 133° |
| 2026-04-20 19:02 | 54.68228 | -5.83087 | 2515 ft | 201 kts | 119° |
| 2026-04-20 19:03 | 54.67804 | -5.81664 | 2520 ft | 201 kts | 110° |
| 2026-04-20 19:03 | 54.67435 | -5.79342 | 2520 ft | 201 kts | 96° |
| 2026-04-20 19:03 | 54.67448 | -5.76944 | 2509 ft | 201 kts | 74° |
| 2026-04-20 19:03 | 54.68284 | -5.75066 | 2519 ft | 205 kts | 30° |
| 2026-04-20 19:04 | 54.70137 | -5.75020 | 2515 ft | 214 kts | 333° |
| 2026-04-20 19:04 | 54.70895 | -5.76166 | 2514 ft | 219 kts | 304° |
| 2026-04-20 19:04 | 54.71274 | -5.78697 | 2530 ft | 225 kts | 262° |
| 2026-04-20 19:04 | 54.70617 | -5.81112 | 2524 ft | 225 kts | 221° |
| 2026-04-20 19:05 | 54.69452 | -5.82900 | 2508 ft | 227 kts | 230° |
| 2026-04-20 19:05 | 54.68669 | -5.85261 | 2537 ft | 227 kts | 240° |
| 2026-04-20 19:05 | 54.67899 | -5.87663 | 2527 ft | 229 kts | 239° |
| 2026-04-20 19:05 | 54.67109 | -5.90055 | 2518 ft | 230 kts | 238° |
| 2026-04-20 19:06 | 54.66311 | -5.92464 | 2520 ft | 232 kts | 238° |
| 2026-04-20 19:06 | 54.65508 | -5.94880 | 2531 ft | 231 kts | 238° |
| 2026-04-20 19:06 | 54.64716 | -5.97278 | 2511 ft | 227 kts | 238° |
| 2026-04-20 19:06 | 54.63948 | -5.99599 | 2505 ft | 224 kts | 238° |
| 2026-04-20 19:07 | 54.63174 | -6.01944 | 2521 ft | 225 kts | 238° |
| 2026-04-20 19:07 | 54.62394 | -6.04297 | 2521 ft | 226 kts | 238° |
| 2026-04-20 19:07 | 54.61609 | -6.06652 | 2493 ft | 227 kts | 238° |
| 2026-04-20 19:07 | 54.60823 | -6.09015 | 2495 ft | 228 kts | 238° |
| 2026-04-20 19:08 | 54.60032 | -6.11391 | 2490 ft | 228 kts | 238° |
| 2026-04-20 19:08 | 54.58455 | -6.16116 | 2501 ft | 227 kts | 238° |
| 2026-04-20 19:08 | 54.57665 | -6.18479 | 2493 ft | 227 kts | 238° |
| 2026-04-20 19:09 | 54.56882 | -6.20828 | 2492 ft | 225 kts | 238° |
| 2026-04-20 19:09 | 54.56104 | -6.23165 | 2495 ft | 224 kts | 238° |
| 2026-04-20 19:09 | 54.55330 | -6.25492 | 2491 ft | 223 kts | 238° |
| 2026-04-20 19:09 | 54.54568 | -6.27784 | 2497 ft | 223 kts | 238° |
| 2026-04-20 19:10 | 54.53796 | -6.30097 | 2494 ft | 223 kts | 238° |
| 2026-04-20 19:10 | 54.53023 | -6.32416 | 2496 ft | 223 kts | 238° |
| 2026-04-20 19:10 | 54.52252 | -6.34732 | 2499 ft | 223 kts | 238° |
| 2026-04-20 19:10 | 54.51480 | -6.37047 | 2497 ft | 223 kts | 238° |
| 2026-04-20 19:11 | 54.50700 | -6.39365 | 2499 ft | 223 kts | 238° |
| 2026-04-20 19:11 | 54.49923 | -6.41682 | 2499 ft | 224 kts | 238° |
| 2026-04-20 19:11 | 54.49141 | -6.44002 | 2502 ft | 224 kts | 238° |
| 2026-04-20 19:11 | 54.48174 | -6.46066 | 2498 ft | 221 kts | 218° |
| 2026-04-20 19:12 | 54.46995 | -6.47765 | 2496 ft | 221 kts | 218° |
| 2026-04-20 19:12 | 54.45826 | -6.49489 | 2502 ft | 221 kts | 218° |
| 2026-04-20 19:12 | 54.44659 | -6.51217 | 2498 ft | 221 kts | 219° |
| 2026-04-20 19:12 | 54.43807 | -6.53358 | 2485 ft | 224 kts | 255° |
| 2026-04-20 19:13 | 54.43938 | -6.55955 | 2496 ft | 221 kts | 298° |
| 2026-04-20 19:13 | 54.44999 | -6.57730 | 2501 ft | 214 kts | 341° |
| 2026-04-20 19:13 | 54.46443 | -6.57939 | 2528 ft | 210 kts | 9° |
| 2026-04-20 19:13 | 54.47915 | -6.57678 | 2511 ft | 215 kts | 8° |
| 2026-04-20 19:14 | 54.49410 | -6.57431 | 2509 ft | 216 kts | 8° |
| 2026-04-20 19:14 | 54.50911 | -6.57181 | 2504 ft | 217 kts | 8° |
| 2026-04-20 19:14 | 54.52408 | -6.56931 | 2494 ft | 215 kts | 8° |
| 2026-04-20 19:14 | 54.53863 | -6.56689 | 2491 ft | 211 kts | 8° |
| 2026-04-20 19:15 | 54.55316 | -6.56423 | 2493 ft | 210 kts | 14° |
| 2026-04-20 19:15 | 54.56537 | -6.55233 | 2494 ft | 200 kts | 55° |
| 2026-04-20 19:15 | 54.57178 | -6.53157 | 2506 ft | 195 kts | 64° |
| 2026-04-20 19:15 | 54.57785 | -6.51104 | 2512 ft | 190 kts | 64° |
| 2026-04-20 19:16 | 54.58359 | -6.49070 | 2511 ft | 188 kts | 65° |
| 2026-04-20 19:16 | 54.58917 | -6.47026 | 2508 ft | 191 kts | 66° |
| 2026-04-20 19:16 | 54.59478 | -6.44944 | 2504 ft | 191 kts | 66° |
| 2026-04-20 19:16 | 54.60020 | -6.42922 | 2486 ft | 180 kts | 67° |
| 2026-04-20 19:17 | 54.60534 | -6.41002 | 2392 ft | 173 kts | 66° |
| 2026-04-20 19:17 | 54.61030 | -6.39146 | 2183 ft | 168 kts | 66° |
| 2026-04-20 19:17 | 54.61506 | -6.37370 | 1951 ft | 157 kts | 67° |
| 2026-04-20 19:17 | 54.61951 | -6.35710 | 1760 ft | 149 kts | 67° |
| 2026-04-20 19:18 | 54.62382 | -6.34101 | 1563 ft | 147 kts | 67° |
| 2026-04-20 19:18 | 54.62815 | -6.32543 | 1383 ft | 146 kts | 66° |
| 2026-04-20 19:18 | 54.63236 | -6.30935 | 1167 ft | 147 kts | 66° |
| 2026-04-20 19:18 | 54.63649 | -6.29385 | 1021 ft | 141 kts | 66° |
| 2026-04-20 19:19 | 54.64059 | -6.27855 | 807 ft | 139 kts | 66° |
| 2026-04-20 19:19 | 54.64457 | -6.26373 | 650 ft | 133 kts | 67° |
| 2026-04-20 19:19 | 54.64843 | -6.24964 | 479 ft | 124 kts | 62° |
| 2026-04-20 19:19 | 54.65169 | -6.23721 | 335 ft | 103 kts | 66° |
| 2026-04-20 19:20 | 54.65445 | -6.22715 | 273 ft | 80 kts | 62° |
| 2026-04-20 19:20 | 54.65629 | -6.22033 | 274 ft | 46 kts | 64° |
| 2026-04-20 19:20 | 54.65748 | -6.21578 | 271 ft | 40 kts | 64° |
| 2026-04-20 19:20 | 54.65835 | -6.21347 | 271 ft | 16 kts | 20° |
| 2026-04-20 19:21 | 54.65891 | -6.21346 | 271 ft | 7 kts | 340° |
| 2026-04-20 19:21 | 54.65938 | -6.21383 | 271 ft | 5 kts | 334° |
| 2026-04-20 19:21 | 54.65939 | -6.21383 | 271 ft | 0 kts | 334° |
| 2026-04-20 19:22 | 54.65959 | -6.21436 | 271 ft | 11 kts | 282° |
| 2026-04-20 19:22 | 54.65934 | -6.21572 | 274 ft | 13 kts | 244° |
| 2026-04-20 19:22 | 54.65940 | -6.21660 | 273 ft | 7 kts | 294° |
| 2026-04-20 19:22 | 54.65950 | -6.21727 | 271 ft | 4 kts | 277° |
| 2026-04-20 19:23 | 54.65953 | -6.21769 | 275 ft | 2 kts | 278° |
| 2026-04-20 19:23 | 54.65954 | -6.21776 | 274 ft | 0 kts | 278° |
| 2026-04-20 19:29 | 54.63484 | -6.30002 | 1120 ft | 116 kts | 67° |
| 2026-04-20 19:29 | 54.63687 | -6.29242 | 1020 ft | 141 kts | 66° |
| 2026-04-20 19:29 | 54.63743 | -6.29032 | 985 ft | 133 kts | 66° |